Weather at Beijing Xijiao Airport

Public forecast

Using degrees Celsius for public forecast. Weather courtesy of forecast.io.

Closest aviation weather report (METAR) to Beijing Xijiao Airport

Closest report is Beijing Capital International Airport, 16.7 nm (30.9 km) ENE.

2024/06/24 03:30 (retrieved 34 minutes ago)

ZBAA 240330Z VRB02MPS CAVOK 32/09 Q1008 NOSIG

Closest aviation forecast (TAF) to Beijing Xijiao Airport

Forecast is more than 6 hours old.

Closest forecast is Beijing Daxing International Airport, 28.0 nm (51.8 km) SSE.

2024/06/23 18:00 (retrieved 10 hours ago)

TAF ZBAA 231501Z 2318/2418 02004MPS CAVOK TX35/2407Z TN19/2321Z TAF ZBAD 231501Z 2318/2418 36004MPS 5000 BR NSC TX32/2406Z TN20/2321Z